Time;durP1;ratioP1;P1;durP2;ratioP2;P2;SDS_P1;SDS_P2;PMS_P1;PMS_P2;Temp;Humidity;BMP_temperature;BMP_pressure;BME280_temperature;BME280_humidity;BME280_pressure;Samples;Min_cycle;Max_cycle;Signal;HPM_P1;HPM_P2
2022/08/25 00:01:30;;;;;;;8.60;2.70;;;;;;;20.03;88.40;100888.23;84531;1331;22605;-71
2022/08/25 00:03:41;;;;;;;7.20;2.80;;;;;;;20.03;88.42;100889.09;84541;1329;25333;-68
2022/08/25 00:05:52;;;;;;;11.20;3.60;;;;;;;20.03;88.51;100882.73;84588;1330;22580;-68
2022/08/25 00:08:06;;;;;;;9.60;4.20;;;;;;;20.04;88.63;100881.77;84558;1330;22635;-70
2022/08/25 00:10:15;;;;;;;9.50;3.20;;;;;;;20.03;88.71;100879.19;84551;1330;22660;-70
2022/08/25 00:12:24;;;;;;;7.90;3.20;;;;;;;20.03;88.64;100877.98;84576;1330;22862;-70
2022/08/25 00:14:37;;;;;;;4.90;2.90;;;;;;;20.03;88.78;100875.29;84589;1331;22768;-70
2022/08/25 00:16:46;;;;;;;7.60;4.10;;;;;;;20.02;88.71;100872.17;84565;1332;22816;-70
2022/08/25 00:18:58;;;;;;;8.80;3.20;;;;;;;20.00;88.78;100871.59;84577;1328;23140;-68
2022/08/25 00:21:09;;;;;;;15.30;3.70;;;;;;;20.01;88.85;100865.91;84581;1328;22602;-69
2022/08/25 00:23:23;;;;;;;12.30;4.10;;;;;;;20.02;88.99;100865.61;84535;1328;22615;-68
2022/08/25 00:25:32;;;;;;;6.20;3.20;;;;;;;20.03;88.99;100860.90;84553;1330;22606;-68
2022/08/25 00:27:46;;;;;;;7.90;2.70;;;;;;;20.03;89.06;100863.07;84557;1327;22689;-69
2022/08/25 00:29:55;;;;;;;8.90;3.10;;;;;;;20.02;89.24;100860.29;84539;1329;22621;-69
2022/08/25 00:32:06;;;;;;;7.90;3.30;;;;;;;20.00;89.26;100859.02;84550;1329;22692;-71
2022/08/25 00:34:18;;;;;;;9.20;3.30;;;;;;;19.98;89.42;100857.42;84562;1328;24174;-69
2022/08/25 00:36:27;;;;;;;8.90;2.90;;;;;;;19.98;89.50;100858.30;84548;1325;25296;-70
2022/08/25 00:38:37;;;;;;;11.10;3.40;;;;;;;19.99;89.63;100855.77;84573;1324;22625;-69
2022/08/25 00:40:44;;;;;;;;;;;;;;;20.00;89.76;100849.30;84551;1331;22791;-70
2022/08/25 00:42:53;;;;;;;13.00;3.60;;;;;;;19.97;89.89;100851.98;84575;1329;23969;-69
2022/08/25 00:45:04;;;;;;;16.80;3.20;;;;;;;20.00;89.93;100852.87;84541;1332;22593;-69
2022/08/25 00:47:16;;;;;;;9.20;2.50;;;;;;;19.99;89.94;100850.41;84566;1329;25355;-70
2022/08/25 00:49:29;;;;;;;10.90;3.20;;;;;;;20.01;90.10;100854.20;84547;1324;22596;-69
2022/08/25 00:51:44;;;;;;;11.60;3.20;;;;;;;20.02;90.14;100851.10;84559;1329;23980;-68
2022/08/25 00:53:55;;;;;;;9.80;2.90;;;;;;;20.02;90.17;100854.95;84562;1330;22593;-68
2022/08/25 00:56:04;;;;;;;;;;;;;;;20.02;90.29;100855.34;84584;1329;22590;-68
2022/08/25 00:58:16;;;;;;;13.00;4.30;;;;;;;19.99;90.39;100855.38;84559;1330;22594;-68
2022/08/25 01:00:36;;;;;;;12.70;3.00;;;;;;;19.99;90.57;100852.00;84571;1330;22837;-69
2022/08/25 01:02:53;;;;;;;13.10;4.90;;;;;;;20.02;90.81;100847.59;84578;1329;22699;-68
2022/08/25 01:05:09;;;;;;;7.80;3.10;;;;;;;20.03;90.66;100841.98;84569;1330;23907;-67
2022/08/25 01:07:22;;;;;;;10.80;4.20;;;;;;;20.04;90.69;100843.73;84601;1332;22612;-67
2022/08/25 01:09:41;;;;;;;6.70;3.30;;;;;;;20.05;90.63;100843.66;84548;1329;22592;-67
2022/08/25 01:11:52;;;;;;;6.30;3.10;;;;;;;20.05;90.74;100845.95;84577;1329;23943;-68
2022/08/25 01:14:05;;;;;;;6.80;3.40;;;;;;;20.05;90.81;100848.05;84489;1336;22605;-67
2022/08/25 01:16:16;;;;;;;12.70;3.70;;;;;;;20.06;90.83;100846.77;84560;1330;24354;-66
2022/08/25 01:18:27;;;;;;;8.70;3.20;;;;;;;20.07;90.96;100848.98;84561;1329;23966;-68
2022/08/25 01:20:40;;;;;;;9.80;3.50;;;;;;;20.08;91.10;100850.67;84560;1329;24369;-68
2022/08/25 01:22:50;;;;;;;11.90;3.70;;;;;;;20.09;91.09;100846.89;84599;1329;24375;-69
2022/08/25 01:25:06;;;;;;;9.50;3.50;;;;;;;20.09;91.22;100845.80;84548;1328;22602;-69
2022/08/25 01:27:24;;;;;;;12.40;3.70;;;;;;;20.10;91.22;100847.02;84569;1331;22597;-68
2022/08/25 01:29:36;;;;;;;8.50;3.10;;;;;;;20.08;91.21;100845.34;84572;1329;22878;-69
2022/08/25 01:31:49;;;;;;;11.60;3.80;;;;;;;20.08;91.35;100839.52;84549;1330;22602;-69
2022/08/25 01:33:59;;;;;;;4.70;3.40;;;;;;;20.09;91.37;100841.04;84574;1329;25273;-67
2022/08/25 01:36:09;;;;;;;;;;;;;;;20.09;91.45;100839.98;84551;1333;22586;-68
2022/08/25 01:38:19;;;;;;;10.80;3.00;;;;;;;20.08;91.68;100843.38;84569;1330;22836;-68
2022/08/25 01:40:31;;;;;;;8.50;3.20;;;;;;;20.08;91.70;100845.17;84563;1329;22607;-69
2022/08/25 01:43:04;;;;;;;12.00;4.50;;;;;;;20.08;91.69;100841.79;84530;1330;22606;-69
2022/08/25 01:45:15;;;;;;;9.40;3.90;;;;;;;20.07;91.83;100841.86;84524;1332;22596;-68
2022/08/25 01:47:27;;;;;;;9.90;3.90;;;;;;;20.08;92.05;100841.07;84571;1329;24253;-70
2022/08/25 01:49:39;;;;;;;7.60;3.70;;;;;;;20.10;91.92;100839.92;84557;1329;22790;-70
2022/08/25 01:51:51;;;;;;;7.80;3.70;;;;;;;20.10;92.11;100839.19;84565;1329;24262;-69
2022/08/25 01:54:00;;;;;;;8.20;3.60;;;;;;;20.11;92.31;100836.52;84560;1332;22644;-69
2022/08/25 01:56:18;;;;;;;9.80;3.90;;;;;;;20.11;92.33;100835.43;84566;1330;24816;-69
2022/08/25 01:58:28;;;;;;;17.30;4.30;;;;;;;20.13;92.18;100835.87;84574;1329;24182;-71
2022/08/25 02:00:37;;;;;;;11.90;3.80;;;;;;;20.14;92.48;100831.66;84552;1330;22590;-70
2022/08/25 02:02:46;;;;;;;11.30;4.60;;;;;;;20.15;92.41;100831.59;84539;1330;23969;-68
2022/08/25 02:04:59;;;;;;;14.20;3.90;;;;;;;20.17;92.36;100828.66;84536;1333;25353;-69
2022/08/25 02:07:11;;;;;;;12.50;4.10;;;;;;;20.17;92.37;100831.06;84584;1332;22595;-69
2022/08/25 02:09:20;;;;;;;8.80;4.10;;;;;;;20.18;92.43;100833.85;84562;1332;22848;-67
2022/08/25 02:11:31;;;;;;;9.00;3.60;;;;;;;20.20;92.55;100830.74;84519;1329;22629;-68
2022/08/25 02:13:41;;;;;;;9.60;4.30;;;;;;;20.24;92.69;100823.89;84575;1324;22613;-69
2022/08/25 02:15:55;;;;;;;9.00;4.10;;;;;;;20.26;92.55;100820.04;84526;1331;22595;-69
2022/08/25 02:18:04;;;;;;;9.60;5.20;;;;;;;20.26;92.48;100814.72;84536;1330;24383;-71
2022/08/25 02:20:19;;;;;;;10.40;5.20;;;;;;;20.25;92.58;100815.63;84520;1324;22714;-70
2022/08/25 02:22:31;;;;;;;9.80;4.40;;;;;;;20.26;92.57;100812.04;84573;1324;22603;-67
2022/08/25 02:24:42;;;;;;;9.20;4.60;;;;;;;20.27;92.64;100811.94;84542;1330;22599;-68
2022/08/25 02:26:55;;;;;;;10.80;3.90;;;;;;;20.30;92.66;100814.07;84522;1328;23049;-68
2022/08/25 02:29:05;;;;;;;14.40;4.90;;;;;;;20.31;92.65;100815.23;84576;1330;22609;-68
2022/08/25 02:31:14;;;;;;;7.70;4.00;;;;;;;20.32;92.72;100815.67;84536;1329;24027;-69
2022/08/25 02:33:23;;;;;;;13.90;4.60;;;;;;;20.34;92.84;100815.00;84576;1329;22741;-70
2022/08/25 02:35:32;;;;;;;12.40;5.00;;;;;;;20.36;92.95;100816.63;84570;1329;24265;-70
2022/08/25 02:37:44;;;;;;;16.30;5.10;;;;;;;20.38;93.00;100816.34;84569;1329;25433;-69
2022/08/25 02:39:52;;;;;;;15.00;4.90;;;;;;;20.39;93.02;100816.57;84537;1331;22589;-70
2022/08/25 02:42:02;;;;;;;10.80;5.50;;;;;;;20.40;93.06;100813.70;84579;1329;22620;-70
2022/08/25 02:44:11;;;;;;;16.40;4.80;;;;;;;20.40;93.06;100813.88;84546;1329;22621;-70
2022/08/25 02:46:21;;;;;;;12.50;4.90;;;;;;;20.41;93.11;100814.15;84539;1330;22917;-70
2022/08/25 02:48:30;;;;;;;11.50;4.10;;;;;;;20.42;93.15;100812.13;84552;1329;22809;-69
2022/08/25 02:50:38;;;;;;;16.00;5.90;;;;;;;20.43;93.06;100809.56;84549;1332;25492;-69
2022/08/25 02:52:49;;;;;;;21.20;5.00;;;;;;;20.45;93.26;100812.27;84559;1332;22603;-70
2022/08/25 02:54:58;;;;;;;10.40;4.30;;;;;;;20.47;93.25;100810.70;84550;1330;23982;-70
2022/08/25 02:57:07;;;;;;;15.20;5.20;;;;;;;20.48;93.28;100812.96;84545;1329;22693;-69
2022/08/25 02:59:16;;;;;;;9.40;5.40;;;;;;;20.49;93.25;100815.71;84550;1327;22590;-70
2022/08/25 03:01:25;;;;;;;10.70;5.50;;;;;;;20.50;93.27;100816.52;84554;1327;22835;-69
2022/08/25 03:03:34;;;;;;;12.40;5.40;;;;;;;20.50;93.23;100813.73;84550;1329;22607;-69
2022/08/25 03:05:44;;;;;;;9.30;4.70;;;;;;;20.51;93.11;100812.96;84505;1331;22583;-70
2022/08/25 03:07:55;;;;;;;16.50;5.30;;;;;;;20.50;93.20;100811.78;84551;1330;25493;-69
2022/08/25 03:10:09;;;;;;;14.10;4.80;;;;;;;20.50;93.17;100810.50;84555;1328;26488;-69
2022/08/25 03:12:19;;;;;;;12.10;6.00;;;;;;;20.50;93.03;100810.18;84541;1327;22835;-69
2022/08/25 03:14:29;;;;;;;13.00;5.70;;;;;;;20.50;93.18;100815.12;84532;1329;23970;-70
2022/08/25 03:16:37;;;;;;;;;;;;;;;20.51;93.17;100815.56;84561;1330;25224;-70
2022/08/25 03:18:47;;;;;;;12.50;5.30;;;;;;;20.49;93.24;100815.35;84545;1332;22679;-71
2022/08/25 03:20:57;;;;;;;16.80;6.00;;;;;;;20.50;93.18;100813.73;84567;1329;22630;-70
2022/08/25 03:23:06;;;;;;;23.00;6.50;;;;;;;20.51;93.23;100817.20;84589;1329;24109;-69
2022/08/25 03:27:42;;;;;;;18.30;6.50;;;;;;;20.49;93.32;100811.98;84501;1332;24354;-69
2022/08/25 03:29:55;;;;;;;16.30;6.40;;;;;;;20.50;93.50;100809.08;84556;1332;22680;-69
2022/08/25 03:32:06;;;;;;;20.70;6.10;;;;;;;20.53;93.69;100812.23;84507;1324;22752;-69
2022/08/25 03:34:16;;;;;;;21.60;7.40;;;;;;;20.55;93.65;100812.81;84549;1330;22766;-69
2022/08/25 03:36:26;;;;;;;25.10;7.20;;;;;;;20.57;93.67;100810.02;84584;1332;22610;-69
2022/08/25 03:38:34;;;;;;;;;;;;;;;20.57;93.64;100809.42;84599;1326;22572;-68
2022/08/25 03:40:46;;;;;;;27.40;7.70;;;;;;;20.56;93.72;100807.59;84103;1330;672000;-69
2022/08/25 03:42:56;;;;;;;22.80;7.20;;;;;;;20.58;93.76;100806.92;84576;1329;22611;-69
2022/08/25 03:45:10;;;;;;;55.00;12.80;;;;;;;20.59;93.80;100807.73;84589;1329;22617;-69
2022/08/25 03:47:23;;;;;;;52.40;10.50;;;;;;;20.61;93.74;100805.98;84569;1328;24267;-67
2022/08/25 03:49:34;;;;;;;41.90;10.10;;;;;;;20.63;93.73;100807.80;84572;1329;22620;-69
2022/08/25 03:51:46;;;;;;;39.20;8.30;;;;;;;20.64;93.69;100808.80;84588;1330;22875;-69
2022/08/25 03:53:56;;;;;;;23.30;7.20;;;;;;;20.64;93.74;100804.38;84582;1329;24249;-69
2022/08/25 03:56:08;;;;;;;21.00;6.80;;;;;;;20.65;93.79;100802.38;84589;1329;24941;-69
2022/08/25 03:58:17;;;;;;;28.60;7.80;;;;;;;20.68;93.90;100804.59;84599;1330;22602;-69
2022/08/25 04:00:26;;;;;;;18.90;6.70;;;;;;;20.71;93.76;100805.11;84548;1332;22601;-69
2022/08/25 04:02:35;;;;;;;18.60;6.90;;;;;;;20.74;93.70;100807.35;84584;1329;22592;-69
2022/08/25 04:04:44;;;;;;;25.20;7.20;;;;;;;20.77;93.55;100803.77;84600;1331;22640;-70
2022/08/25 04:06:53;;;;;;;16.20;6.60;;;;;;;20.77;93.46;100803.91;84575;1333;22593;-68
2022/08/25 04:09:02;;;;;;;27.10;6.80;;;;;;;20.80;93.36;100804.60;84562;1329;21827;-69
2022/08/25 04:11:13;;;;;;;20.60;6.70;;;;;;;20.82;93.34;100801.43;84592;1333;22582;-69
2022/08/25 04:13:22;;;;;;;15.00;7.20;;;;;;;20.84;93.13;100803.80;84623;1329;22591;-69
2022/08/25 04:15:31;;;;;;;22.40;7.40;;;;;;;20.83;93.21;100806.45;84589;1331;25318;-69
2022/08/25 04:17:41;;;;;;;18.20;6.50;;;;;;;20.84;93.17;100806.24;84562;1329;22827;-69
2022/08/25 04:19:50;;;;;;;16.30;6.00;;;;;;;20.86;93.15;100807.86;84568;1330;22736;-70
2022/08/25 04:21:59;;;;;;;18.70;6.50;;;;;;;20.89;93.16;100806.45;84606;1330;22785;-70
2022/08/25 04:24:09;;;;;;;24.50;7.50;;;;;;;20.90;93.18;100807.23;84477;1331;25475;-70
2022/08/25 04:26:20;;;;;;;17.40;6.30;;;;;;;20.90;92.97;100807.20;84575;1329;23957;-70
2022/08/25 04:28:29;;;;;;;18.40;7.60;;;;;;;20.93;92.93;100809.50;84595;1330;26646;-69
2022/08/25 04:30:37;;;;;;;31.90;7.90;;;;;;;20.95;92.90;100807.73;84578;1329;22636;-69
2022/08/25 04:32:47;;;;;;;21.10;6.80;;;;;;;20.97;92.78;100808.44;84539;1332;25353;-68
2022/08/25 04:35:00;;;;;;;36.60;10.40;;;;;;;20.99;92.75;100805.30;84585;1329;23922;-68
2022/08/25 04:37:09;;;;;;;29.60;9.20;;;;;;;21.01;92.68;100804.23;84585;1328;22905;-68
2022/08/25 04:39:20;;;;;;;31.20;8.90;;;;;;;21.03;92.62;100806.95;84584;1329;22669;-69
2022/08/25 04:41:30;;;;;;;32.00;11.20;;;;;;;21.05;92.73;100806.97;84571;1327;25608;-69
2022/08/25 04:43:40;;;;;;;44.60;10.00;;;;;;;21.07;92.64;100809.28;84594;1329;25431;-69
2022/08/25 04:45:49;;;;;;;34.60;11.10;;;;;;;21.11;92.56;100809.02;84590;1329;22638;-67
2022/08/25 04:48:04;;;;;;;52.20;10.70;;;;;;;21.14;92.53;100813.23;84607;1329;22598;-69
2022/08/25 04:50:14;;;;;;;49.20;11.70;;;;;;;21.17;92.56;100806.44;84565;1331;25289;-69
2022/08/25 04:52:22;;;;;;;40.90;10.90;;;;;;;21.19;92.54;100806.10;84589;1329;22624;-70
2022/08/25 04:54:32;;;;;;;40.60;9.60;;;;;;;21.23;92.30;100802.26;84603;1330;22615;-69
2022/08/25 04:56:42;;;;;;;30.90;9.00;;;;;;;21.25;92.01;100802.27;84596;1331;24359;-69
2022/08/25 04:58:51;;;;;;;25.50;6.90;;;;;;;21.30;92.12;100799.61;84572;1330;25324;-70
2022/08/25 05:01:06;;;;;;;28.00;8.80;;;;;;;21.35;92.03;100799.42;84583;1329;22656;-70
2022/08/25 05:03:16;;;;;;;40.60;8.30;;;;;;;21.42;91.90;100795.38;84580;1331;22812;-69
2022/08/25 05:05:25;;;;;;;46.90;12.70;;;;;;;21.48;91.78;100795.42;84582;1329;22845;-69
2022/08/25 05:07:33;;;;;;;29.30;9.70;;;;;;;21.54;91.68;100797.09;84612;1329;22600;-71
2022/08/25 05:09:42;;;;;;;44.30;11.80;;;;;;;21.59;91.80;100792.77;84578;1329;22616;-71
2022/08/25 05:11:51;;;;;;;35.50;9.40;;;;;;;21.65;91.63;100792.52;84564;1333;22810;-70
2022/08/25 05:14:00;;;;;;;31.50;7.50;;;;;;;21.72;91.55;100792.30;84577;1331;22816;-69
2022/08/25 05:16:10;;;;;;;33.70;8.70;;;;;;;21.81;91.24;100796.89;84602;1330;25296;-69
2022/08/25 05:18:19;;;;;;;27.00;6.80;;;;;;;21.89;90.53;100802.34;84616;1329;22571;-68
2022/08/25 05:20:29;;;;;;;23.30;8.30;;;;;;;21.95;90.37;100804.02;84563;1329;22592;-68
2022/08/25 05:22:38;;;;;;;19.90;6.80;;;;;;;22.05;90.50;100803.69;84597;1329;22586;-69
2022/08/25 05:24:53;;;;;;;19.60;6.40;;;;;;;22.18;90.49;100798.80;84580;1330;22643;-69
2022/08/25 05:27:02;;;;;;;23.40;6.90;;;;;;;22.34;90.65;100794.34;84594;1329;22594;-69
2022/08/25 05:29:13;;;;;;;26.20;7.50;;;;;;;22.51;90.40;100791.55;84562;1329;22618;-69
2022/08/25 05:31:26;;;;;;;27.80;6.70;;;;;;;22.72;90.40;100787.88;84589;1329;25288;-69
2022/08/25 05:33:37;;;;;;;28.50;6.60;;;;;;;22.95;89.56;100789.72;84590;1330;22607;-68
2022/08/25 05:35:49;;;;;;;33.20;7.90;;;;;;;23.22;89.70;100784.58;84594;1330;22602;-68
2022/08/25 05:37:58;;;;;;;38.50;8.60;;;;;;;23.71;89.83;100788.03;84617;1329;22610;-69
2022/08/25 05:40:10;;;;;;;77.70;14.70;;;;;;;24.39;88.98;100786.20;84562;1330;25397;-70
2022/08/25 05:42:22;;;;;;;37.30;9.80;;;;;;;25.11;86.91;100784.69;84578;1329;25258;-69
2022/08/25 05:44:33;;;;;;;33.40;6.50;;;;;;;25.71;81.99;100787.27;84564;1330;22695;-70
2022/08/25 05:46:44;;;;;;;24.10;6.10;;;;;;;26.21;79.95;100790.11;84582;1329;22649;-70
2022/08/25 05:48:53;;;;;;;20.30;6.60;;;;;;;26.81;78.62;100780.15;84573;1329;22612;-70
2022/08/25 05:51:05;;;;;;;27.50;7.00;;;;;;;27.36;74.93;100788.73;84590;1329;22554;-70
2022/08/25 05:53:14;;;;;;;21.90;7.20;;;;;;;27.68;72.59;100787.75;84553;1329;22596;-70
2022/08/25 05:55:23;;;;;;;29.40;7.40;;;;;;;27.85;71.38;100786.39;84553;1330;22648;-70
2022/08/25 05:57:32;;;;;;;32.50;8.80;;;;;;;28.05;69.05;100785.50;84563;1329;22704;-70
2022/08/25 05:59:40;;;;;;;41.50;9.40;;;;;;;28.04;68.00;100785.67;84532;1330;22563;-69
2022/08/25 06:04:16;;;;;;;28.00;7.20;;;;;;;27.62;66.53;100791.46;84596;1327;22687;-70
2022/08/25 06:06:25;;;;;;;37.10;9.00;;;;;;;27.40;67.25;100789.80;84585;1327;22736;-70
2022/08/25 06:08:34;;;;;;;50.80;10.60;;;;;;;27.28;66.86;100786.35;84570;1330;22639;-71
2022/08/25 06:10:43;;;;;;;59.70;12.30;;;;;;;27.31;67.22;100785.36;84583;1328;22728;-72
2022/08/25 06:12:51;;;;;;;55.40;10.40;;;;;;;27.44;67.71;100788.99;84549;1332;22607;-69
2022/08/25 06:15:00;;;;;;;43.00;9.50;;;;;;;27.63;67.66;100782.30;84538;1329;23913;-69
2022/08/25 06:17:12;;;;;;;30.00;8.10;;;;;;;27.99;66.38;100782.59;84578;1330;22755;-69
2022/08/25 06:19:22;;;;;;;31.60;8.90;;;;;;;28.31;65.47;100784.00;84564;1329;25337;-69
2022/08/25 06:21:34;;;;;;;41.20;10.50;;;;;;;28.83;65.22;100787.84;84544;1326;22672;-69
2022/08/25 06:23:43;;;;;;;27.90;8.60;;;;;;;29.33;63.78;100788.61;84564;1329;22736;-71
2022/08/25 06:25:52;;;;;;;;;;;;;;;29.91;61.02;100790.56;84567;1330;24307;-70
2022/08/25 06:28:01;;;;;;;70.80;15.40;;;;;;;30.42;59.53;100791.41;84607;1329;23989;-69
2022/08/25 06:30:17;;;;;;;33.80;9.30;;;;;;;31.03;58.55;100793.59;84577;1329;25358;-69
2022/08/25 06:32:50;;;;;;;29.90;8.00;;;;;;;31.59;55.73;100793.27;84498;1335;24172;-69
2022/08/25 06:35:11;;;;;;;36.60;8.50;;;;;;;31.87;54.09;100793.21;84535;1332;22851;-68
2022/08/25 06:37:23;;;;;;;26.60;7.80;;;;;;;32.12;53.64;100794.73;84570;1327;22988;-69
2022/08/25 06:39:32;;;;;;;37.40;7.70;;;;;;;32.32;53.30;100797.52;84590;1329;23037;-70
2022/08/25 06:41:41;;;;;;;31.60;7.80;;;;;;;32.22;52.72;100795.60;84579;1332;25290;-70
2022/08/25 06:43:49;;;;;;;31.10;7.30;;;;;;;32.13;52.39;100796.81;84591;1330;22709;-70
2022/08/25 06:45:58;;;;;;;22.30;6.70;;;;;;;32.15;51.73;100794.05;84557;1329;22661;-70
2022/08/25 06:48:12;;;;;;;24.80;7.10;;;;;;;32.24;50.82;100794.41;84656;1326;22615;-70
2022/08/25 06:50:23;;;;;;;23.60;6.50;;;;;;;32.36;50.22;100794.58;84588;1331;24411;-70
2022/08/25 06:52:37;;;;;;;18.40;6.20;;;;;;;32.30;50.13;100795.27;84593;1333;22598;-72
2022/08/25 06:54:47;;;;;;;31.50;7.30;;;;;;;32.23;49.83;100794.45;84621;1329;22739;-71
2022/08/25 06:57:00;;;;;;;24.20;7.30;;;;;;;32.06;49.70;100793.67;84646;1329;25544;-70
2022/08/25 06:59:10;;;;;;;23.80;7.20;;;;;;;32.02;50.00;100797.09;84592;1330;22765;-71
2022/08/25 07:01:22;;;;;;;29.90;7.40;;;;;;;31.96;49.66;100799.52;84596;1329;25478;-70
2022/08/25 07:03:37;;;;;;;28.00;6.80;;;;;;;31.83;50.87;100803.70;84621;1330;22597;-70
2022/08/25 07:06:00;;;;;;;32.80;7.50;;;;;;;31.68;50.33;100809.11;84621;1329;24286;-70
2022/08/25 07:08:11;;;;;;;53.50;11.50;;;;;;;31.36;50.29;100810.84;84484;1334;23922;-68
2022/08/25 07:10:22;;;;;;;40.80;9.30;;;;;;;31.06;50.57;100809.66;84644;1332;22583;-69
2022/08/25 07:12:36;;;;;;;37.50;8.40;;;;;;;30.79;50.88;100811.32;84610;1330;24222;-71
2022/08/25 07:14:51;;;;;;;27.90;7.80;;;;;;;30.58;51.51;100812.63;84542;1332;22784;-69
2022/08/25 07:17:02;;;;;;;28.60;8.20;;;;;;;30.44;52.19;100812.47;84592;1329;23994;-70
2022/08/25 07:19:13;;;;;;;21.90;7.80;;;;;;;30.31;52.96;100815.34;84557;1333;23976;-71
2022/08/25 07:21:22;;;;;;;27.50;7.80;;;;;;;30.25;53.46;100813.91;84595;1327;23044;-72
2022/08/25 07:23:32;;;;;;;26.90;7.80;;;;;;;30.21;53.12;100816.70;84597;1329;22613;-72
2022/08/25 07:25:41;;;;;;;26.40;8.20;;;;;;;30.11;52.66;100818.91;84566;1333;22634;-70
2022/08/25 07:27:49;;;;;;;;;;;;;;;29.96;53.68;100820.94;84579;1332;22579;-69
2022/08/25 07:30:00;;;;;;;32.40;7.90;;;;;;;29.82;54.43;100827.52;84571;1324;22585;-69
2022/08/25 07:32:10;;;;;;;24.70;8.00;;;;;;;29.75;54.29;100828.01;84606;1329;22624;-70
2022/08/25 07:36:50;;;;;;;29.70;9.10;;;;;;;29.67;55.16;100823.65;84591;1330;24103;-69
2022/08/25 07:39:03;;;;;;;29.10;8.50;;;;;;;29.74;55.34;100823.27;84616;1333;24254;-70
2022/08/25 07:41:12;;;;;;;22.70;7.10;;;;;;;29.84;55.13;100824.44;84643;1333;22611;-69
2022/08/25 07:43:21;;;;;;;30.00;7.60;;;;;;;29.94;55.22;100820.59;84456;1333;23946;-70
2022/08/25 07:45:33;;;;;;;26.80;7.70;;;;;;;30.05;55.59;100822.02;84538;1331;22589;-71
2022/08/25 07:47:42;;;;;;;27.00;8.80;;;;;;;30.14;54.98;100820.56;84642;1330;22680;-69
2022/08/25 07:50:00;;;;;;;25.20;9.20;;;;;;;30.28;54.77;100820.55;84512;1331;25607;-68
2022/08/25 07:52:13;;;;;;;24.30;6.80;;;;;;;30.42;54.48;100822.75;84623;1332;25309;-70
2022/08/25 07:54:23;;;;;;;26.50;8.10;;;;;;;30.58;54.47;100819.92;84631;1329;22852;-71
2022/08/25 07:56:34;;;;;;;27.00;8.00;;;;;;;30.75;53.46;100821.43;84589;1330;22961;-70
2022/08/25 07:58:45;;;;;;;30.30;7.60;;;;;;;30.77;53.27;100828.45;84591;1329;24110;-69
2022/08/25 08:00:54;;;;;;;32.50;7.90;;;;;;;30.81;53.41;100829.16;84541;1335;22674;-69
2022/08/25 08:03:04;;;;;;;25.70;8.20;;;;;;;30.86;53.21;100831.39;84614;1330;23970;-69
2022/08/25 08:05:15;;;;;;;20.00;7.00;;;;;;;31.11;54.67;100829.12;84591;1327;22658;-69
2022/08/25 08:07:25;;;;;;;22.70;7.20;;;;;;;31.73;54.58;100831.05;84597;1329;25284;-71
2022/08/25 08:09:39;;;;;;;25.40;7.10;;;;;;;32.22;52.12;100829.25;84620;1329;22602;-69
2022/08/25 08:11:54;;;;;;;24.60;6.70;;;;;;;32.51;50.57;100831.34;84583;1331;25310;-71
2022/08/25 08:14:03;;;;;;;26.10;8.10;;;;;;;32.61;49.92;100831.48;84550;1331;22606;-72
2022/08/25 08:16:14;;;;;;;35.30;8.40;;;;;;;32.90;49.26;100830.86;84553;1332;24290;-72
2022/08/25 08:18:23;;;;;;;31.40;7.70;;;;;;;33.13;48.62;100834.21;84610;1330;24249;-72
2022/08/25 08:20:41;;;;;;;35.50;8.60;;;;;;;33.51;48.02;100831.08;84556;1332;22611;-72
2022/08/25 08:22:50;;;;;;;29.40;8.20;;;;;;;34.01;47.27;100832.69;84586;1329;22590;-70
2022/08/25 08:24:59;;;;;;;23.00;6.70;;;;;;;34.50;46.73;100827.83;84597;1331;22653;-70
2022/08/25 08:27:10;;;;;;;17.20;6.90;;;;;;;35.18;45.03;100826.74;84613;1332;23981;-71
2022/08/25 08:29:21;;;;;;;24.50;7.20;;;;;;;35.69;43.64;100828.45;84609;1334;22610;-71
2022/08/25 08:31:30;;;;;;;22.40;7.00;;;;;;;36.08;42.68;100824.66;84606;1330;25431;-71
2022/08/25 08:33:41;;;;;;;27.20;7.50;;;;;;;36.67;42.30;100825.30;84573;1329;26479;-71
2022/08/25 08:35:55;;;;;;;24.40;6.80;;;;;;;37.33;41.23;100828.63;84627;1330;24037;-71
2022/08/25 08:38:05;;;;;;;25.50;7.30;;;;;;;37.78;38.69;100828.05;84599;1330;22672;-69
2022/08/25 08:40:16;;;;;;;19.70;7.40;;;;;;;37.96;38.29;100831.52;84582;1332;26736;-70
2022/08/25 08:42:41;;;;;;;29.60;8.10;;;;;;;38.16;37.55;100826.76;84584;1335;22623;-71
2022/08/25 08:45:17;;;;;;;30.80;9.50;;;;;;;38.47;37.16;100829.49;84604;1331;22618;-70
2022/08/25 08:47:49;;;;;;;23.00;7.90;;;;;;;38.68;35.72;100829.92;84598;1329;22686;-71
2022/08/25 08:50:04;;;;;;;31.40;8.40;;;;;;;39.04;36.69;100826.63;84572;1329;22595;-70
2022/08/25 08:52:15;;;;;;;27.70;8.10;;;;;;;39.37;35.26;100820.67;84624;1327;22824;-70
2022/08/25 08:54:30;;;;;;;33.60;9.30;;;;;;;39.46;34.68;100820.44;84587;1329;24252;-70
2022/08/25 08:56:42;;;;;;;22.70;8.40;;;;;;;39.38;33.81;100819.93;84607;1326;22776;-72
2022/08/25 08:58:56;;;;;;;26.20;7.90;;;;;;;39.35;34.74;100818.69;84591;1332;24245;-70
2022/08/25 09:01:07;;;;;;;24.90;7.70;;;;;;;39.64;35.43;100818.41;84601;1330;25494;-71
2022/08/25 09:03:24;;;;;;;33.70;10.90;;;;;;;39.95;34.09;100815.77;84614;1332;22836;-70
2022/08/25 09:05:35;;;;;;;;;;;;;;;39.96;33.80;100817.98;84608;1329;22568;-71
2022/08/25 09:07:49;;;;;;;28.00;7.40;;;;;;;39.95;33.71;100814.59;84574;1330;25315;-70
2022/08/25 09:09:58;;;;;;;30.90;8.30;;;;;;;40.13;33.24;100814.51;84565;1332;22734;-70
2022/08/25 09:12:12;;;;;;;33.90;8.30;;;;;;;40.30;33.22;100813.09;84602;1332;22606;-71
2022/08/25 09:14:39;;;;;;;25.40;8.50;;;;;;;40.55;32.87;100812.56;84569;1332;22601;-70
2022/08/25 09:16:56;;;;;;;26.70;8.40;;;;;;;40.71;32.48;100810.73;84610;1329;22648;-73
2022/08/25 09:19:13;;;;;;;23.20;7.90;;;;;;;40.65;32.07;100809.71;84600;1331;23989;-71
2022/08/25 09:21:29;;;;;;;24.40;7.60;;;;;;;40.36;32.27;100807.13;84596;1329;24287;-70
2022/08/25 09:23:50;;;;;;;22.30;7.10;;;;;;;40.05;32.35;100808.29;84647;1329;22591;-72
2022/08/25 09:26:07;;;;;;;23.10;7.70;;;;;;;39.92;33.22;100806.98;84509;1326;22604;-73
2022/08/25 09:28:25;;;;;;;20.20;6.70;;;;;;;39.92;33.52;100808.63;84601;1329;22593;-71
2022/08/25 09:30:45;;;;;;;21.10;7.10;;;;;;;40.02;33.31;100808.38;84580;1329;24335;-73
2022/08/25 09:33:03;;;;;;;22.00;7.90;;;;;;;40.05;33.43;100805.30;84620;1329;22590;-71
2022/08/25 09:35:17;;;;;;;24.10;6.70;;;;;;;39.86;32.81;100805.96;84500;1335;22645;-70
2022/08/25 09:37:26;;;;;;;23.00;7.70;;;;;;;39.68;33.55;100804.20;84626;1329;25991;-70
2022/08/25 09:39:35;;;;;;;21.80;8.20;;;;;;;39.48;34.22;100803.79;84590;1331;22590;-71
2022/08/25 09:41:49;;;;;;;25.10;7.40;;;;;;;39.27;33.81;100800.16;84601;1330;22676;-71
2022/08/25 09:44:09;;;;;;;24.60;7.50;;;;;;;38.71;33.30;100800.90;84573;1329;22615;-72
2022/08/25 09:46:23;;;;;;;24.50;8.30;;;;;;;38.20;34.55;100795.90;84607;1330;22592;-71
2022/08/25 09:48:36;;;;;;;29.80;8.40;;;;;;;37.90;36.07;100800.52;84590;1328;22626;-72
2022/08/25 09:50:45;;;;;;;30.60;7.90;;;;;;;37.67;35.68;100795.36;84579;1330;22866;-73
2022/08/25 09:52:54;;;;;;;28.70;8.40;;;;;;;37.35;35.86;100786.54;84578;1330;22845;-72
2022/08/25 09:55:19;;;;;;;;;;;;;;;36.98;36.02;100784.08;84479;1335;24995;-71
2022/08/25 09:57:37;;;;;;;21.80;7.70;;;;;;;36.60;37.97;100782.60;84589;1330;24252;-72
2022/08/25 09:59:50;;;;;;;22.00;7.40;;;;;;;36.51;38.60;100781.77;84585;1326;22592;-73
2022/08/25 10:02:01;;;;;;;23.50;7.10;;;;;;;36.42;38.75;100778.50;84610;1328;22653;-71
2022/08/25 10:04:10;;;;;;;32.40;6.90;;;;;;;36.33;38.46;100778.88;84591;1330;24219;-71
2022/08/25 10:06:21;;;;;;;25.50;7.20;;;;;;;36.25;38.71;100777.19;84575;1328;22590;-71
2022/08/25 10:08:37;;;;;;;29.90;7.80;;;;;;;36.07;37.08;100772.55;84602;1330;22594;-73
2022/08/25 10:10:56;;;;;;;29.70;8.10;;;;;;;35.83;37.60;100772.80;84601;1333;22973;-73
2022/08/25 10:13:03;;;;;;;;;;;;;;;35.69;38.95;100770.36;84559;1333;22735;-72
2022/08/25 10:15:22;;;;;;;26.90;6.90;;;;;;;35.61;37.94;100769.98;84497;1331;22752;-72